Time;durP1;ratioP1;P1;durP2;ratioP2;P2;SDS_P1;SDS_P2;PMS_P1;PMS_P2;Temp;Humidity;BMP_temperature;BMP_pressure;BME280_temperature;BME280_humidity;BME280_pressure;Samples;Min_cycle;Max_cycle;Signal;HPM_P1;HPM_P2
2021/07/09 00:00:34;;;;;;;1.20;0.50;;;;;;;;;;6290168;28;20876;-81
2021/07/09 00:03:36;;;;;;;0.40;0.30;;;;;;;;;;6300125;28;20335;-71
2021/07/09 00:06:40;;;;;;;1.27;0.28;;;;;;;;;;6305746;28;20052;-73
2021/07/09 00:09:41;;;;;;;1.55;0.30;;;;;;;;;;6309239;28;20048;-72
2021/07/09 00:12:43;;;;;;;1.05;0.38;;;;;;;;;;6299542;28;20070;-72
2021/07/09 00:15:45;;;;;;;0.95;0.32;;;;;;;;;;6300067;28;20266;-76
2021/07/09 00:18:47;;;;;;;0.32;0.30;;;;;;;;;;6301732;28;20048;-72
2021/07/09 00:21:51;;;;;;;0.55;0.17;;;;;;;;;;6303713;28;20060;-77
2021/07/09 00:24:53;;;;;;;0.75;0.30;;;;;;;;;;6306578;28;20492;-80
2021/07/09 00:27:54;;;;;;;1.10;0.30;;;;;;;;;;6307604;28;20064;-75
2021/07/09 00:30:59;;;;;;;0.45;0.30;;;;;;;;;;6307353;28;20044;-71
2021/07/09 00:34:03;;;;;;;0.40;0.30;;;;;;;;;;6308046;28;20044;-72
2021/07/09 00:37:06;;;;;;;2.42;0.60;;;;;;;;;;6307762;28;20093;-72
2021/07/09 00:40:09;;;;;;;1.40;0.30;;;;;;;;;;6310425;28;20104;-82
2021/07/09 00:43:12;;;;;;;1.27;0.40;;;;;;;;;;6297921;28;20045;-72
2021/07/09 00:46:13;;;;;;;0.75;0.40;;;;;;;;;;6305432;28;20075;-75
2021/07/09 00:49:15;;;;;;;0.75;0.30;;;;;;;;;;6310224;28;20044;-73
2021/07/09 00:52:18;;;;;;;1.88;0.40;;;;;;;;;;6308625;28;20143;-72
2021/07/09 00:55:20;;;;;;;0.95;0.35;;;;;;;;;;6307753;28;20076;-76
2021/07/09 00:58:22;;;;;;;0.93;0.40;;;;;;;;;;6308589;28;20078;-72
2021/07/09 01:01:24;;;;;;;1.08;0.40;;;;;;;;;;6306615;28;20055;-71
2021/07/09 01:04:25;;;;;;;2.67;0.70;;;;;;;;;;6309528;28;20408;-72
2021/07/09 01:07:28;;;;;;;0.93;0.50;;;;;;;;;;6306818;28;20051;-74
2021/07/09 01:10:31;;;;;;;0.28;0.28;;;;;;;;;;6308852;28;20133;-78
2021/07/09 01:13:33;;;;;;;0.43;0.40;;;;;;;;;;6310727;28;20047;-75
2021/07/09 01:16:34;;;;;;;1.70;0.63;;;;;;;;;;6305502;28;20044;-80
2021/07/09 01:19:36;;;;;;;1.27;0.40;;;;;;;;;;6308934;28;20045;-72
2021/07/09 01:22:42;;;;;;;1.05;0.30;;;;;;;;;;6304080;28;20060;-72
2021/07/09 01:25:49;;;;;;;1.30;0.40;;;;;;;;;;6306697;28;20067;-75
2021/07/09 01:28:50;;;;;;;2.05;0.40;;;;;;;;;;6308522;28;20044;-73
2021/07/09 01:31:52;;;;;;;0.68;0.47;;;;;;;;;;6295588;28;20099;-71
2021/07/09 01:34:54;;;;;;;1.85;0.43;;;;;;;;;;6305529;28;20057;-73
2021/07/09 01:37:57;;;;;;;0.70;0.40;;;;;;;;;;6297101;28;20049;-72
2021/07/09 01:41:00;;;;;;;0.60;0.30;;;;;;;;;;6299436;28;20135;-73
2021/07/09 01:44:03;;;;;;;1.13;0.40;;;;;;;;;;6280715;28;20077;-82
2021/07/09 01:47:05;;;;;;;1.02;0.50;;;;;;;;;;6266085;28;20068;-72
2021/07/09 01:50:08;;;;;;;0.43;0.30;;;;;;;;;;6279469;28;20052;-80
2021/07/09 01:53:10;;;;;;;1.67;0.60;;;;;;;;;;6284592;28;20060;-72
2021/07/09 01:56:13;;;;;;;0.80;0.50;;;;;;;;;;6302613;28;20045;-75
2021/07/09 01:59:15;;;;;;;2.25;0.80;;;;;;;;;;6275388;28;20049;-74
2021/07/09 02:02:17;;;;;;;4.03;1.20;;;;;;;;;;6290439;28;20044;-80
2021/07/09 02:05:19;;;;;;;0.77;0.50;;;;;;;;;;6280040;28;20151;-79
2021/07/09 02:08:21;;;;;;;0.68;0.32;;;;;;;;;;6283021;28;20068;-71
2021/07/09 02:11:24;;;;;;;0.30;0.30;;;;;;;;;;6278347;28;20060;-72
2021/07/09 02:14:25;;;;;;;1.70;0.40;;;;;;;;;;6278830;28;20045;-75
2021/07/09 02:17:27;;;;;;;0.43;0.40;;;;;;;;;;6263814;28;20057;-73
2021/07/09 02:20:32;;;;;;;3.70;0.40;;;;;;;;;;6269564;28;20424;-71
2021/07/09 02:23:34;;;;;;;0.50;0.30;;;;;;;;;;6269139;28;20099;-72
2021/07/09 02:26:37;;;;;;;3.22;0.65;;;;;;;;;;6272581;28;20056;-73
2021/07/09 02:29:39;;;;;;;0.57;0.40;;;;;;;;;;6276573;28;20107;-72
2021/07/09 02:32:44;;;;;;;0.90;0.40;;;;;;;;;;6264306;28;20539;-71
2021/07/09 02:35:46;;;;;;;2.67;0.28;;;;;;;;;;6270653;28;20512;-71
2021/07/09 02:38:47;;;;;;;1.67;0.50;;;;;;;;;;6293464;28;20139;-74
2021/07/09 02:41:50;;;;;;;1.30;0.40;;;;;;;;;;6294774;28;20135;-71
2021/07/09 02:44:52;;;;;;;3.93;0.70;;;;;;;;;;6300035;28;20178;-72
2021/07/09 02:47:54;;;;;;;3.08;0.50;;;;;;;;;;6288432;28;20049;-71
2021/07/09 02:50:55;;;;;;;1.20;0.63;;;;;;;;;;6295519;28;20102;-72
2021/07/09 02:53:57;;;;;;;2.25;0.40;;;;;;;;;;6299652;28;20125;-74
2021/07/09 02:57:00;;;;;;;0.55;0.32;;;;;;;;;;6297142;28;20045;-72
2021/07/09 03:00:02;;;;;;;1.02;0.70;;;;;;;;;;6301570;28;20075;-73
2021/07/09 03:03:06;;;;;;;1.00;0.30;;;;;;;;;;6289477;28;20055;-72
2021/07/09 03:06:08;;;;;;;2.33;0.40;;;;;;;;;;6291309;28;20040;-73
2021/07/09 03:09:11;;;;;;;1.38;0.40;;;;;;;;;;6302703;28;20476;-71
2021/07/09 03:12:14;;;;;;;5.50;0.55;;;;;;;;;;6293506;28;20139;-71
2021/07/09 03:15:17;;;;;;;1.98;0.73;;;;;;;;;;6289285;28;20080;-77
2021/07/09 03:18:19;;;;;;;1.20;0.60;;;;;;;;;;6268587;28;20049;-76
2021/07/09 03:21:20;;;;;;;1.58;0.40;;;;;;;;;;6264441;28;20041;-72
2021/07/09 03:24:22;;;;;;;1.15;0.30;;;;;;;;;;6272683;28;20114;-74
2021/07/09 03:27:25;;;;;;;3.05;0.52;;;;;;;;;;6267789;28;20123;-72
2021/07/09 03:30:27;;;;;;;2.23;0.73;;;;;;;;;;6264736;28;20594;-75
2021/07/09 03:33:29;;;;;;;1.92;0.60;;;;;;;;;;6268018;28;20425;-72
2021/07/09 03:36:30;;;;;;;3.92;0.63;;;;;;;;;;6266315;28;20053;-71
2021/07/09 03:39:32;;;;;;;0.80;0.30;;;;;;;;;;6269840;28;20069;-72
2021/07/09 03:42:35;;;;;;;2.85;0.40;;;;;;;;;;6267631;28;20053;-71
2021/07/09 03:45:37;;;;;;;2.07;0.40;;;;;;;;;;6265783;28;20048;-72
2021/07/09 03:48:39;;;;;;;2.20;0.40;;;;;;;;;;6268037;28;20561;-75
2021/07/09 03:51:40;;;;;;;3.60;0.50;;;;;;;;;;6267171;28;20106;-73
2021/07/09 03:54:42;;;;;;;3.83;0.70;;;;;;;;;;6271958;28;20077;-73
2021/07/09 03:57:45;;;;;;;0.70;0.38;;;;;;;;;;6262642;28;20049;-72
2021/07/09 04:00:47;;;;;;;1.13;0.20;;;;;;;;;;6260976;28;20080;-72
2021/07/09 04:03:48;;;;;;;1.98;0.50;;;;;;;;;;6266467;28;20087;-73
2021/07/09 04:06:54;;;;;;;1.30;0.40;;;;;;;;;;6283378;28;20068;-71
2021/07/09 04:09:56;;;;;;;0.90;0.40;;;;;;;;;;6284475;28;20044;-73
2021/07/09 04:12:59;;;;;;;0.82;0.40;;;;;;;;;;6264927;28;20056;-75
2021/07/09 04:16:00;;;;;;;3.07;0.60;;;;;;;;;;6261301;28;20417;-72
2021/07/09 04:19:02;;;;;;;2.17;0.50;;;;;;;;;;6270632;28;20056;-74
2021/07/09 04:22:04;;;;;;;0.93;0.45;;;;;;;;;;6263476;28;20168;-72
2021/07/09 04:25:08;;;;;;;1.98;0.40;;;;;;;;;;6267867;28;20582;-80
2021/07/09 04:28:10;;;;;;;;;;;;;;;;;;6266505;28;20059;-74
2021/07/09 04:31:12;;;;;;;2.13;0.60;;;;;;;;;;6257575;28;19996;-73
2021/07/09 04:34:14;;;;;;;2.28;0.50;;;;;;;;;;6269341;28;20114;-71
2021/07/09 04:37:15;;;;;;;1.48;0.55;;;;;;;;;;6265781;28;20191;-71
2021/07/09 04:40:18;;;;;;;2.03;0.43;;;;;;;;;;6267480;28;20087;-78
2021/07/09 04:43:22;;;;;;;0.82;0.50;;;;;;;;;;6269679;28;20127;-72
2021/07/09 04:46:24;;;;;;;2.25;0.55;;;;;;;;;;6264558;28;20049;-74
2021/07/09 04:49:26;;;;;;;1.55;0.55;;;;;;;;;;6270242;28;20129;-72
2021/07/09 04:52:28;;;;;;;1.05;0.70;;;;;;;;;;6269142;28;20095;-72
2021/07/09 04:55:29;;;;;;;1.85;0.43;;;;;;;;;;6262217;28;20483;-76
2021/07/09 04:58:32;;;;;;;3.65;0.60;;;;;;;;;;6291889;28;20127;-72
2021/07/09 05:01:34;;;;;;;0.83;0.50;;;;;;;;;;6295055;28;20120;-77
2021/07/09 05:04:36;;;;;;;2.22;0.50;;;;;;;;;;6303576;28;20110;-72
2021/07/09 05:07:37;;;;;;;0.80;0.50;;;;;;;;;;6262527;28;20076;-72
2021/07/09 05:10:39;;;;;;;3.75;0.60;;;;;;;;;;6262095;28;20176;-71
2021/07/09 05:13:42;;;;;;;2.00;0.60;;;;;;;;;;6264811;28;20053;-71
2021/07/09 05:16:44;;;;;;;1.15;0.50;;;;;;;;;;6259211;28;20048;-70
2021/07/09 05:19:45;;;;;;;1.92;0.65;;;;;;;;;;6264227;28;20548;-76
2021/07/09 05:22:47;;;;;;;1.77;0.70;;;;;;;;;;6261096;28;20049;-73
2021/07/09 05:25:49;;;;;;;2.90;0.63;;;;;;;;;;6262925;28;20136;-71
2021/07/09 05:28:53;;;;;;;3.40;0.60;;;;;;;;;;6272513;28;20163;-70
2021/07/09 05:31:54;;;;;;;3.05;0.77;;;;;;;;;;6263791;28;20151;-73
2021/07/09 05:34:57;;;;;;;1.35;0.45;;;;;;;;;;6271263;28;20045;-78
2021/07/09 05:37:59;;;;;;;2.92;0.60;;;;;;;;;;6264867;28;20068;-72
2021/07/09 05:41:00;;;;;;;3.58;0.90;;;;;;;;;;6265423;28;20069;-72
2021/07/09 05:44:03;;;;;;;2.05;0.90;;;;;;;;;;6278693;28;20105;-74
2021/07/09 05:47:05;;;;;;;2.65;0.80;;;;;;;;;;6266474;28;20108;-73
2021/07/09 05:50:08;;;;;;;2.25;1.00;;;;;;;;;;6266207;28;20108;-77
2021/07/09 05:53:10;;;;;;;2.55;0.82;;;;;;;;;;6271405;28;20225;-73
2021/07/09 05:56:13;;;;;;;1.52;0.75;;;;;;;;;;6284188;28;20044;-72
2021/07/09 05:59:16;;;;;;;;;;;;;;;;;;6275705;28;20072;-73
2021/07/09 06:02:18;;;;;;;5.25;0.90;;;;;;;;;;6262092;28;19988;-79
2021/07/09 06:05:19;;;;;;;3.08;0.80;;;;;;;;;;6262157;28;20096;-76
2021/07/09 06:08:21;;;;;;;1.55;0.65;;;;;;;;;;6268814;28;21451;-71
2021/07/09 06:11:25;;;;;;;1.17;0.65;;;;;;;;;;6274676;28;20055;-71
2021/07/09 06:18:35;;;;;;;0.98;0.60;;;;;;;;;;6251460;28;20048;-74
2021/07/09 06:21:36;;;;;;;1.47;0.80;;;;;;;;;;6260179;28;20184;-71
2021/07/09 06:24:38;;;;;;;2.28;0.75;;;;;;;;;;6267508;28;20049;-71
2021/07/09 06:27:39;;;;;;;3.22;1.30;;;;;;;;;;6267216;28;20497;-71
2021/07/09 06:30:41;;;;;;;2.28;0.60;;;;;;;;;;6261205;28;20049;-71
2021/07/09 06:33:44;;;;;;;2.75;0.90;;;;;;;;;;6271154;28;20173;-71
2021/07/09 06:36:46;;;;;;;1.43;0.70;;;;;;;;;;6281620;28;20129;-74
2021/07/09 06:39:47;;;;;;;3.22;0.70;;;;;;;;;;6268990;28;20095;-71
2021/07/09 06:42:49;;;;;;;47.88;4.32;;;;;;;;;;6264535;28;20040;-69
2021/07/09 06:45:51;;;;;;;4.22;0.82;;;;;;;;;;6265158;28;20053;-69
2021/07/09 06:48:54;;;;;;;2.67;0.90;;;;;;;;;;6270999;28;20052;-70
2021/07/09 06:51:55;;;;;;;1.92;0.80;;;;;;;;;;6277039;28;20075;-72
2021/07/09 06:54:58;;;;;;;3.83;1.27;;;;;;;;;;6271625;28;20061;-71
2021/07/09 06:58:03;;;;;;;5.55;1.08;;;;;;;;;;6281746;28;20051;-74
2021/07/09 07:01:04;;;;;;;2.92;0.90;;;;;;;;;;6281760;28;20036;-75
2021/07/09 07:04:09;;;;;;;2.90;0.98;;;;;;;;;;6307922;28;20071;-72
2021/07/09 07:07:10;;;;;;;2.83;1.35;;;;;;;;;;6292759;28;20056;-70
2021/07/09 07:10:13;;;;;;;1.83;0.80;;;;;;;;;;6296713;28;20577;-76
2021/07/09 07:13:15;;;;;;;8.73;0.97;;;;;;;;;;6298169;28;20068;-72
2021/07/09 07:16:17;;;;;;;2.42;0.98;;;;;;;;;;6289447;28;20055;-73
2021/07/09 07:19:20;;;;;;;1.90;0.65;;;;;;;;;;6291235;28;20135;-74
2021/07/09 07:22:21;;;;;;;2.92;0.70;;;;;;;;;;6292720;28;20059;-79
2021/07/09 07:25:24;;;;;;;1.88;0.68;;;;;;;;;;6291632;28;20052;-76
2021/07/09 07:49:19;;;;;;;1.83;0.88;;;;;;;;;;6273190;28;20098;-71
2021/07/09 07:52:20;;;;;;;5.40;0.90;;;;;;;;;;6283235;28;20128;-71
2021/07/09 07:55:23;;;;;;;3.42;0.95;;;;;;;;;;6286842;28;20139;-76
2021/07/09 07:58:25;;;;;;;2.27;1.10;;;;;;;;;;6291019;28;20052;-70
2021/07/09 08:01:30;;;;;;;2.55;0.70;;;;;;;;;;6287416;28;20037;-71
2021/07/09 08:04:32;;;;;;;4.05;1.02;;;;;;;;;;6291488;28;20044;-70
2021/07/09 08:07:34;;;;;;;2.90;0.70;;;;;;;;;;6284574;28;20516;-72
2021/07/09 08:10:36;;;;;;;3.08;0.70;;;;;;;;;;6289666;28;20041;-77
2021/07/09 08:13:39;;;;;;;1.48;0.75;;;;;;;;;;6295667;28;20122;-75
2021/07/09 08:16:40;;;;;;;3.35;0.60;;;;;;;;;;6287122;28;20068;-70
2021/07/09 08:19:43;;;;;;;5.88;1.00;;;;;;;;;;6295098;28;20179;-73
2021/07/09 08:22:45;;;;;;;2.08;0.80;;;;;;;;;;6287671;28;20150;-71
2021/07/09 08:25:48;;;;;;;2.38;0.60;;;;;;;;;;6293800;28;20056;-70
2021/07/09 08:28:49;;;;;;;2.50;0.70;;;;;;;;;;6298996;28;20048;-70
2021/07/09 08:31:51;;;;;;;3.08;0.77;;;;;;;;;;6293620;28;20127;-70
2021/07/09 08:34:54;;;;;;;1.75;0.82;;;;;;;;;;6298607;28;20123;-69
2021/07/09 08:37:56;;;;;;;6.82;0.80;;;;;;;;;;6288332;28;20051;-71
2021/07/09 08:40:58;;;;;;;2.10;0.60;;;;;;;;;;6292665;28;20097;-70
2021/07/09 08:43:59;;;;;;;6.63;0.75;;;;;;;;;;6295590;28;20130;-77
2021/07/09 08:47:01;;;;;;;1.98;0.70;;;;;;;;;;6285681;28;20047;-73
2021/07/09 08:50:07;;;;;;;3.10;0.80;;;;;;;;;;6290774;28;20536;-78
2021/07/09 08:53:09;;;;;;;2.13;0.60;;;;;;;;;;6288530;28;20048;-70
2021/07/09 08:56:10;;;;;;;1.55;0.70;;;;;;;;;;6292083;28;20052;-75
2021/07/09 08:59:12;;;;;;;5.72;1.23;;;;;;;;;;6291116;28;20049;-75
2021/07/09 09:02:13;;;;;;;1.63;0.70;;;;;;;;;;6292508;28;20104;-75
2021/07/09 09:05:21;;;;;;;2.70;0.55;;;;;;;;;;6287244;28;20522;-75
2021/07/09 09:08:23;;;;;;;1.95;0.70;;;;;;;;;;6289425;28;20041;-70
2021/07/09 09:11:25;;;;;;;3.95;0.70;;;;;;;;;;6286546;28;20052;-71
2021/07/09 09:14:26;;;;;;;2.95;0.50;;;;;;;;;;6288779;28;20047;-71
2021/07/09 09:17:31;;;;;;;2.35;0.63;;;;;;;;;;6274684;28;20144;-72
2021/07/09 09:20:34;;;;;;;2.88;0.60;;;;;;;;;;6282970;28;20305;-75
2021/07/09 09:23:37;;;;;;;;;;;;;;;;;;6288906;28;20052;-71
2021/07/09 09:26:40;;;;;;;5.60;0.70;;;;;;;;;;6284673;28;20023;-76
2021/07/09 09:29:42;;;;;;;;;;;;;;;;;;6282256;28;20044;-74
2021/07/09 09:32:47;;;;;;;2.15;0.70;;;;;;;;;;6273393;28;19970;-73
2021/07/09 09:35:54;;;;;;;2.40;0.60;;;;;;;;;;6279522;28;20745;-73
2021/07/09 09:38:56;;;;;;;0.93;0.45;;;;;;;;;;6286217;28;20048;-77
2021/07/09 09:42:08;;;;;;;2.92;0.60;;;;;;;;;;6279694;28;20056;-76
2021/07/09 09:45:10;;;;;;;2.63;0.52;;;;;;;;;;6283845;28;20551;-75
2021/07/09 09:48:13;;;;;;;1.15;0.57;;;;;;;;;;6276672;28;20141;-73
2021/07/09 09:51:25;;;;;;;1.48;0.70;;;;;;;;;;6280571;28;21051;-72
2021/07/09 09:54:34;;;;;;;3.78;0.93;;;;;;;;;;6285254;28;20131;-73
2021/07/09 09:57:36;;;;;;;1.45;0.68;;;;;;;;;;6279794;28;20055;-74
2021/07/09 10:00:38;;;;;;;1.58;0.57;;;;;;;;;;6284425;28;20060;-74
2021/07/09 10:03:40;;;;;;;1.05;0.52;;;;;;;;;;6287154;28;20739;-73
2021/07/09 10:06:43;;;;;;;2.03;0.70;;;;;;;;;;6284598;28;20037;-78
2021/07/09 10:09:44;;;;;;;1.98;0.90;;;;;;;;;;6292845;28;20041;-73
2021/07/09 10:12:48;;;;;;;2.40;0.50;;;;;;;;;;6286077;28;20606;-77
2021/07/09 10:15:51;;;;;;;0.65;0.50;;;;;;;;;;6285398;28;20100;-73
2021/07/09 10:18:55;;;;;;;1.63;0.40;;;;;;;;;;6289630;28;20086;-73
2021/07/09 10:21:58;;;;;;;2.65;0.57;;;;;;;;;;6288655;28;20182;-73
2021/07/09 10:25:00;;;;;;;0.77;0.60;;;;;;;;;;6294271;28;20041;-72
2021/07/09 10:28:05;;;;;;;0.70;0.50;;;;;;;;;;6291524;28;20123;-72
2021/07/09 10:31:07;;;;;;;1.30;0.80;;;;;;;;;;6287794;28;21071;-73
2021/07/09 10:34:28;;;;;;;1.40;0.80;;;;;;;;;;6295215;28;20225;-73
2021/07/09 10:37:31;;;;;;;2.08;0.80;;;;;;;;;;6289164;28;20115;-73
2021/07/09 10:40:33;;;;;;;2.03;0.70;;;;;;;;;;6286590;28;20114;-78
2021/07/09 10:43:34;;;;;;;1.13;0.73;;;;;;;;;;6293844;28;20140;-74
2021/07/09 10:46:36;;;;;;;1.30;0.57;;;;;;;;;;6286222;28;20063;-74
2021/07/09 10:49:56;;;;;;;0.57;0.52;;;;;;;;;;6291917;28;20037;-78
2021/07/09 10:53:00;;;;;;;1.38;0.47;;;;;;;;;;6285964;28;20064;-78
2021/07/09 10:56:04;;;;;;;1.70;0.38;;;;;;;;;;6290939;28;20116;-75
2021/07/09 10:59:06;;;;;;;1.00;0.50;;;;;;;;;;6295398;28;20126;-73
2021/07/09 11:02:07;;;;;;;1.70;0.40;;;;;;;;;;6286641;28;20059;-74
2021/07/09 11:05:09;;;;;;;1.42;0.57;;;;;;;;;;6287535;28;20076;-77
2021/07/09 11:08:41;;;;;;;4.53;0.60;;;;;;;;;;6285878;28;21134;-73
2021/07/09 11:11:48;;;;;;;2.20;0.57;;;;;;;;;;6286143;28;20047;-74
2021/07/09 11:14:50;;;;;;;2.67;0.60;;;;;;;;;;6294075;28;20044;-73
2021/07/09 11:17:51;;;;;;;2.75;0.50;;;;;;;;;;6282144;28;20196;-74
2021/07/09 11:20:53;;;;;;;3.28;0.40;;;;;;;;;;6283946;28;20097;-74
2021/07/09 11:23:56;;;;;;;1.10;0.40;;;;;;;;;;6293222;28;20052;-73
2021/07/09 11:26:59;;;;;;;0.80;0.70;;;;;;;;;;6291433;28;20124;-73
2021/07/09 11:30:01;;;;;;;0.82;0.60;;;;;;;;;;6286230;28;20089;-72
2021/07/09 11:33:03;;;;;;;1.35;0.77;;;;;;;;;;6287184;28;20177;-74
2021/07/09 11:36:17;;;;;;;2.63;1.02;;;;;;;;;;6291582;28;20052;-73
2021/07/09 11:39:22;;;;;;;0.90;0.65;;;;;;;;;;6290592;28;20113;-73
2021/07/09 11:42:24;;;;;;;2.22;0.80;;;;;;;;;;6284735;28;20041;-71
2021/07/09 11:45:29;;;;;;;;;;;;;;;;;;6293515;28;20045;-78
2021/07/09 11:48:31;;;;;;;1.13;0.70;;;;;;;;;;6285010;28;19995;-72
2021/07/09 11:51:33;;;;;;;1.00;0.50;;;;;;;;;;6290058;28;20112;-77
2021/07/09 11:54:38;;;;;;;1.95;0.60;;;;;;;;;;6294490;28;20083;-71
2021/07/09 11:57:40;;;;;;;1.77;0.47;;;;;;;;;;6299243;28;20052;-72
2021/07/09 12:00:42;;;;;;;2.08;0.50;;;;;;;;;;6298975;28;20044;-80
2021/07/09 12:03:50;;;;;;;0.67;0.50;;;;;;;;;;6298771;28;20106;-73
2021/07/09 12:06:52;;;;;;;2.60;0.77;;;;;;;;;;6293053;28;20579;-73
2021/07/09 12:09:57;;;;;;;1.60;0.50;;;;;;;;;;6300024;28;20041;-71
2021/07/09 12:13:01;;;;;;;1.27;0.77;;;;;;;;;;6300958;28;20141;-72
2021/07/09 12:16:06;;;;;;;3.08;0.60;;;;;;;;;;6298185;28;20171;-81
2021/07/09 12:19:07;;;;;;;2.22;0.73;;;;;;;;;;6301754;28;20539;-71
2021/07/09 12:22:22;;;;;;;0.63;0.60;;;;;;;;;;6295524;28;20127;-74
2021/07/09 12:25:29;;;;;;;2.88;0.98;;;;;;;;;;6301696;28;20555;-77
2021/07/09 12:28:31;;;;;;;2.38;0.60;;;;;;;;;;6305690;28;20056;-73
2021/07/09 12:31:33;;;;;;;0.75;0.50;;;;;;;;;;6298447;28;20048;-78
2021/07/09 12:34:35;;;;;;;2.97;0.68;;;;;;;;;;6302226;28;20210;-73
2021/07/09 12:37:37;;;;;;;1.92;0.60;;;;;;;;;;6303564;28;20063;-73
2021/07/09 12:40:43;;;;;;;1.52;0.60;;;;;;;;;;6297570;28;20052;-73
2021/07/09 12:43:49;;;;;;;2.00;0.60;;;;;;;;;;6300876;28;20064;-74
2021/07/09 12:46:51;;;;;;;3.20;0.40;;;;;;;;;;6296656;28;20176;-74
2021/07/09 12:50:12;;;;;;;2.13;0.60;;;;;;;;;;6303372;28;20106;-74
2021/07/09 12:53:21;;;;;;;0.85;0.55;;;;;;;;;;6297090;28;20106;-76
2021/07/09 12:56:26;;;;;;;0.40;0.40;;;;;;;;;;6280608;28;20105;-75
2021/07/09 12:59:28;;;;;;;1.05;0.70;;;;;;;;;;6283773;28;20033;-74
2021/07/09 13:02:30;;;;;;;;;;;;;;;;;;6270049;28;20102;-76
2021/07/09 13:05:32;;;;;;;3.15;0.80;;;;;;;;;;6272039;28;19921;-78
2021/07/09 13:08:34;;;;;;;1.42;0.60;;;;;;;;;;6273926;28;20048;-74
2021/07/09 13:11:39;;;;;;;2.35;0.73;;;;;;;;;;6270553;28;20618;-76
2021/07/09 13:14:59;;;;;;;1.77;0.50;;;;;;;;;;6269534;28;20057;-74
2021/07/09 13:18:05;;;;;;;1.65;0.50;;;;;;;;;;6267938;28;20057;-72
2021/07/09 13:21:10;;;;;;;1.35;0.70;;;;;;;;;;6297971;28;20048;-73
2021/07/09 13:24:16;;;;;;;2.50;0.70;;;;;;;;;;6309173;28;20044;-73
2021/07/09 13:27:24;;;;;;;1.75;0.60;;;;;;;;;;6267051;28;20059;-75
2021/07/09 13:30:26;;;;;;;2.33;0.73;;;;;;;;;;6293742;28;20084;-77
2021/07/09 13:33:27;;;;;;;2.50;0.70;;;;;;;;;;6271858;28;20049;-76
2021/07/09 13:36:33;;;;;;;1.30;0.52;;;;;;;;;;6282077;28;20040;-74
2021/07/09 13:39:35;;;;;;;1.45;0.70;;;;;;;;;;6298340;28;20075;-75
2021/07/09 13:42:40;;;;;;;1.17;0.60;;;;;;;;;;6289050;28;20053;-74
2021/07/09 13:45:46;;;;;;;2.55;0.75;;;;;;;;;;6302511;28;20254;-76
2021/07/09 13:48:48;;;;;;;2.10;0.70;;;;;;;;;;6280039;28;20049;-74
2021/07/09 13:51:50;;;;;;;2.30;0.60;;;;;;;;;;6272952;28;20045;-76
2021/07/09 13:54:52;;;;;;;0.50;0.50;;;;;;;;;;6297471;28;20110;-77
2021/07/09 13:57:55;;;;;;;2.15;0.60;;;;;;;;;;6300762;28;20174;-78
2021/07/09 14:00:57;;;;;;;0.70;0.60;;;;;;;;;;6294603;28;20071;-75
2021/07/09 14:03:58;;;;;;;;;;;;;;;;;;6291866;28;20075;-79
2021/07/09 14:07:00;;;;;;;2.78;0.60;;;;;;;;;;6304199;28;19924;-75
2021/07/09 14:10:02;;;;;;;1.10;0.60;;;;;;;;;;6292055;28;20108;-74
2021/07/09 14:13:05;;;;;;;1.80;0.60;;;;;;;;;;6297069;28;20063;-74
2021/07/09 14:16:07;;;;;;;1.10;0.60;;;;;;;;;;6283668;28;20052;-75
2021/07/09 14:19:09;;;;;;;2.75;0.80;;;;;;;;;;6291928;28;20064;-74
2021/07/09 14:22:10;;;;;;;;;;;;;;;;;;6287318;28;20388;-74
2021/07/09 14:25:13;;;;;;;2.67;0.57;;;;;;;;;;6287709;28;19920;-79
2021/07/09 14:28:16;;;;;;;1.80;0.60;;;;;;;;;;6297646;28;20052;-75
2021/07/09 14:31:17;;;;;;;1.23;0.50;;;;;;;;;;6297952;28;20047;-76
2021/07/09 14:34:19;;;;;;;0.30;0.30;;;;;;;;;;6301817;28;20074;-76
2021/07/09 14:37:21;;;;;;;1.25;0.70;;;;;;;;;;6267868;28;20400;-76
2021/07/09 14:40:23;;;;;;;2.70;0.40;;;;;;;;;;6268577;28;20079;-79
2021/07/09 14:43:27;;;;;;;1.42;0.43;;;;;;;;;;6274660;28;20072;-75
2021/07/09 14:46:28;;;;;;;1.77;0.57;;;;;;;;;;6265694;28;20049;-74
2021/07/09 14:49:30;;;;;;;1.77;0.38;;;;;;;;;;6275509;28;21452;-75
2021/07/09 14:52:32;;;;;;;1.13;0.43;;;;;;;;;;6264263;28;20071;-76
2021/07/09 14:55:34;;;;;;;1.83;0.75;;;;;;;;;;6316781;28;20049;-81
2021/07/09 14:58:37;;;;;;;0.63;0.50;;;;;;;;;;6301072;28;20079;-73
2021/07/09 15:01:38;;;;;;;1.10;0.60;;;;;;;;;;6300706;28;20102;-75
2021/07/09 15:04:40;;;;;;;0.57;0.40;;;;;;;;;;6301655;28;20566;-73
2021/07/09 15:07:42;;;;;;;0.57;0.40;;;;;;;;;;6285046;28;20040;-76
2021/07/09 15:10:43;;;;;;;2.63;0.33;;;;;;;;;;6282101;28;20065;-74
2021/07/09 15:13:51;;;;;;;0.33;0.33;;;;;;;;;;6293125;28;20048;-75
2021/07/09 15:16:54;;;;;;;1.42;0.40;;;;;;;;;;6293548;28;20520;-73
2021/07/09 15:19:55;;;;;;;0.70;0.32;;;;;;;;;;6277659;28;20497;-78
2021/07/09 15:22:57;;;;;;;0.40;0.40;;;;;;;;;;6274131;28;20049;-73
2021/07/09 15:25:59;;;;;;;1.90;0.60;;;;;;;;;;6272382;28;20049;-74
2021/07/09 15:29:02;;;;;;;2.15;0.40;;;;;;;;;;6276614;28;20068;-77
2021/07/09 15:32:04;;;;;;;1.60;0.40;;;;;;;;;;6269592;28;21311;-74
2021/07/09 15:35:07;;;;;;;1.15;0.90;;;;;;;;;;6274911;28;20088;-78
2021/07/09 15:38:09;;;;;;;0.75;0.38;;;;;;;;;;6274358;28;20053;-74
2021/07/09 15:41:11;;;;;;;0.40;0.40;;;;;;;;;;6275432;28;20090;-75
2021/07/09 15:44:17;;;;;;;0.30;0.25;;;;;;;;;;6276712;28;20051;-76
2021/07/09 15:47:20;;;;;;;0.50;0.40;;;;;;;;;;6267927;28;20049;-74
2021/07/09 15:50:22;;;;;;;0.80;0.40;;;;;;;;;;6266033;28;20044;-78
2021/07/09 15:53:24;;;;;;;0.70;0.43;;;;;;;;;;6274398;28;20048;-76
2021/07/09 15:56:26;;;;;;;0.98;0.75;;;;;;;;;;6274218;28;20106;-76
2021/07/09 15:59:29;;;;;;;0.30;0.30;;;;;;;;;;6277803;28;20052;-75
2021/07/09 16:02:31;;;;;;;3.30;0.55;;;;;;;;;;6280065;28;20057;-75
2021/07/09 16:05:33;;;;;;;0.65;0.40;;;;;;;;;;6271262;28;20068;-76
2021/07/09 16:08:35;;;;;;;0.70;0.40;;;;;;;;;;6299451;28;20158;-76
2021/07/09 16:11:36;;;;;;;0.80;0.50;;;;;;;;;;6284209;28;20049;-74
2021/07/09 16:14:39;;;;;;;4.32;0.80;;;;;;;;;;6273234;28;20060;-75
2021/07/09 16:17:41;;;;;;;1.48;0.60;;;;;;;;;;6292567;28;20135;-74
2021/07/09 16:20:43;;;;;;;0.73;0.57;;;;;;;;;;6293293;28;20074;-75
2021/07/09 16:23:45;;;;;;;0.90;0.57;;;;;;;;;;6298062;28;20102;-78
2021/07/09 16:26:47;;;;;;;1.33;0.55;;;;;;;;;;6297492;28;20531;-77
2021/07/09 16:29:50;;;;;;;1.73;0.77;;;;;;;;;;6297970;28;20087;-76
2021/07/09 16:32:52;;;;;;;7.35;2.20;;;;;;;;;;6293220;28;20052;-78
2021/07/09 16:35:53;;;;;;;1.10;0.68;;;;;;;;;;6290804;28;20052;-76
2021/07/09 16:38:55;;;;;;;0.40;0.20;;;;;;;;;;6295406;28;20090;-77
2021/07/09 16:41:57;;;;;;;0.50;0.40;;;;;;;;;;6293072;28;20523;-75
2021/07/09 16:45:01;;;;;;;2.38;0.98;;;;;;;;;;6292697;28;20083;-75
2021/07/09 16:48:03;;;;;;;1.20;0.50;;;;;;;;;;6289710;28;20182;-75
2021/07/09 16:51:04;;;;;;;0.57;0.47;;;;;;;;;;6295202;28;20068;-74
2021/07/09 16:54:06;;;;;;;0.40;0.40;;;;;;;;;;6307125;28;20086;-74
2021/07/09 16:57:08;;;;;;;0.88;0.40;;;;;;;;;;6299661;28;20529;-74
2021/07/09 17:00:12;;;;;;;1.08;0.40;;;;;;;;;;6305642;28;20098;-78
2021/07/09 17:03:14;;;;;;;0.90;0.40;;;;;;;;;;6299873;28;20531;-75
2021/07/09 17:06:15;;;;;;;0.68;0.40;;;;;;;;;;6300295;28;20041;-75
2021/07/09 17:09:17;;;;;;;3.03;0.57;;;;;;;;;;6307332;28;20080;-74
2021/07/09 17:12:19;;;;;;;1.40;0.57;;;;;;;;;;6302292;28;20051;-74
2021/07/09 17:15:24;;;;;;;0.75;0.50;;;;;;;;;;6303741;28;20044;-78
2021/07/09 17:18:26;;;;;;;0.60;0.40;;;;;;;;;;6304726;28;20045;-79
2021/07/09 17:21:28;;;;;;;1.48;0.40;;;;;;;;;;6286529;28;20548;-74
2021/07/09 17:24:30;;;;;;;0.68;0.63;;;;;;;;;;6305172;28;20139;-74
2021/07/09 17:27:31;;;;;;;0.70;0.40;;;;;;;;;;6300422;28;20048;-78
2021/07/09 17:30:35;;;;;;;0.65;0.45;;;;;;;;;;6300184;28;20475;-78
2021/07/09 17:33:37;;;;;;;0.30;0.30;;;;;;;;;;6303120;28;20052;-74
2021/07/09 17:36:39;;;;;;;0.70;0.50;;;;;;;;;;6301650;28;20118;-74
2021/07/09 17:39:40;;;;;;;0.40;0.40;;;;;;;;;;6305435;28;20080;-74
2021/07/09 17:42:42;;;;;;;0.73;0.50;;;;;;;;;;6296978;28;20189;-75
2021/07/09 17:45:45;;;;;;;0.40;0.32;;;;;;;;;;6300843;28;20131;-80
2021/07/09 17:48:46;;;;;;;;;;;;;;;;;;6303785;28;20071;-74
2021/07/09 17:51:48;;;;;;;0.50;0.40;;;;;;;;;;6302381;28;19983;-75
2021/07/09 17:54:50;;;;;;;1.00;0.50;;;;;;;;;;6305545;28;20105;-76
2021/07/09 17:57:52;;;;;;;1.25;0.50;;;;;;;;;;6303915;28;20066;-75
2021/07/09 18:00:55;;;;;;;1.17;0.40;;;;;;;;;;6302484;28;20048;-77
2021/07/09 18:03:57;;;;;;;;;;;;;;;;;;6305395;28;20067;-76
2021/07/09 18:06:59;;;;;;;1.35;0.50;;;;;;;;;;6305167;28;19955;-74
2021/07/09 18:10:01;;;;;;;0.93;0.50;;;;;;;;;;6305832;28;20032;-74
2021/07/09 18:13:05;;;;;;;0.82;0.40;;;;;;;;;;6300682;28;20068;-75
2021/07/09 18:16:08;;;;;;;0.60;0.35;;;;;;;;;;6296154;28;20051;-76
2021/07/09 18:19:09;;;;;;;;;;;;;;;;;;6300856;28;20058;-75
2021/07/09 18:22:11;;;;;;;1.10;0.60;;;;;;;;;;6312765;28;20437;-75
2021/07/09 18:25:13;;;;;;;1.38;0.50;;;;;;;;;;6307800;28;20044;-79
2021/07/09 18:28:16;;;;;;;1.20;0.87;;;;;;;;;;6308084;28;20049;-75
2021/07/09 18:31:19;;;;;;;1.52;0.85;;;;;;;;;;6293224;28;20451;-75
2021/07/09 18:34:21;;;;;;;0.47;0.47;;;;;;;;;;6305251;28;20068;-75
2021/07/09 18:37:22;;;;;;;1.92;0.70;;;;;;;;;;6301989;28;20075;-78
2021/07/09 18:40:24;;;;;;;0.98;0.63;;;;;;;;;;6307325;28;20076;-79
2021/07/09 18:43:26;;;;;;;1.70;0.82;;;;;;;;;;6314301;28;20127;-76